EFUT

Details ICAO EFUT (QVY)
Name Utti
Region Finland
Timezone Europe/Helsinki (UTC+3.0)
Plans Departing 3
Arriving 5
Stats Elevation 339 ft / 103 m (AMSL)
Location 60.896393° 26.938354°
Runways 1
Magnetic Variation 9.965° E
Sunrise 2018-05-22 01:13:10 UTC / 2018-05-22 04:13:10 Local
Sunset 2018-05-22 19:07:30 UTC / 2018-05-22 22:07:30 Local
Advertisement - Login to hide

Runways

ID Width Length Bearing (true) Bearing (mag) Surface Threshold Offset Overrun Length
07 148 ft / 45 m 6,540 ft / 1,994 m 78.01° 68.05° Asphalt 0 ft / 0 m 984 ft / 300 m
25 148 ft / 45 m 6,540 ft / 1,994 m 258.04° 248.08° Asphalt 0 ft / 0 m 858 ft / 262 m

Map

Weather


0- 5 10 15 20 25 30 35+ Temperature / ° C

Clouds and Precipitation
Forecast for 2018-05-22 06:00 UTC. Updated 2 hours ago

Ground ~20,000 ft ~40,000 ft Winds

METAR

EFUT 220650Z 20005KT 150V270 CAVOK 21/05 Q1025

TAF

Not found

Frequencies

Tower 130.80 MHz TWR
Tower 119.70 MHz TWR
Warning: Do not use this data for real-world aviation or navigation. No guarantee of current accuracy is given.